sensor_id;sensor_type;location;lat;lon;timestamp;P1;durP1;ratioP1;P2;durP2;ratioP2
17283;SDS011;8760;52.248;20.952;2023-03-11T00:00:19;26.43;;;15.50;;
17283;SDS011;8760;52.248;20.952;2023-03-11T00:02:49;26.87;;;15.70;;
17283;SDS011;8760;52.248;20.952;2023-03-11T00:05:18;22.60;;;14.97;;
17283;SDS011;8760;52.248;20.952;2023-03-11T00:07:47;23.30;;;15.17;;
17283;SDS011;8760;52.248;20.952;2023-03-11T00:10:14;25.70;;;14.87;;
17283;SDS011;8760;52.248;20.952;2023-03-11T00:12:43;24.17;;;14.73;;
17283;SDS011;8760;52.248;20.952;2023-03-11T00:15:10;26.63;;;15.23;;
17283;SDS011;8760;52.248;20.952;2023-03-11T00:17:37;24.20;;;14.80;;
17283;SDS011;8760;52.248;20.952;2023-03-11T00:20:05;21.70;;;13.93;;
17283;SDS011;8760;52.248;20.952;2023-03-11T00:22:34;24.63;;;14.00;;
17283;SDS011;8760;52.248;20.952;2023-03-11T00:25:01;24.00;;;14.23;;
17283;SDS011;8760;52.248;20.952;2023-03-11T00:27:28;28.13;;;14.40;;
17283;SDS011;8760;52.248;20.952;2023-03-11T00:29:56;23.87;;;14.60;;
17283;SDS011;8760;52.248;20.952;2023-03-11T00:32:23;21.33;;;13.77;;
17283;SDS011;8760;52.248;20.952;2023-03-11T00:34:50;23.87;;;13.63;;
17283;SDS011;8760;52.248;20.952;2023-03-11T00:37:20;25.80;;;13.87;;
17283;SDS011;8760;52.248;20.952;2023-03-11T00:39:47;23.23;;;12.70;;
17283;SDS011;8760;52.248;20.952;2023-03-11T00:42:14;20.53;;;13.03;;
17283;SDS011;8760;52.248;20.952;2023-03-11T00:44:40;24.37;;;14.30;;
17283;SDS011;8760;52.248;20.952;2023-03-11T00:47:09;18.93;;;12.90;;
17283;SDS011;8760;52.248;20.952;2023-03-11T00:49:36;19.60;;;12.77;;
17283;SDS011;8760;52.248;20.952;2023-03-11T00:52:03;23.13;;;13.63;;
17283;SDS011;8760;52.248;20.952;2023-03-11T00:54:31;22.43;;;13.80;;
17283;SDS011;8760;52.248;20.952;2023-03-11T00:56:58;23.17;;;13.17;;
17283;SDS011;8760;52.248;20.952;2023-03-11T00:59:25;24.10;;;13.57;;
17283;SDS011;8760;52.248;20.952;2023-03-11T01:01:52;25.03;;;14.07;;
17283;SDS011;8760;52.248;20.952;2023-03-11T01:04:20;23.17;;;14.37;;
17283;SDS011;8760;52.248;20.952;2023-03-11T01:06:47;24.00;;;13.63;;
17283;SDS011;8760;52.248;20.952;2023-03-11T01:09:14;21.47;;;13.10;;
17283;SDS011;8760;52.248;20.952;2023-03-11T01:11:40;24.23;;;13.80;;
17283;SDS011;8760;52.248;20.952;2023-03-11T01:14:07;21.20;;;13.93;;
17283;SDS011;8760;52.248;20.952;2023-03-11T01:16:35;23.10;;;13.87;;
17283;SDS011;8760;52.248;20.952;2023-03-11T01:19:01;22.63;;;14.07;;
17283;SDS011;8760;52.248;20.952;2023-03-11T01:21:30;21.57;;;13.97;;
17283;SDS011;8760;52.248;20.952;2023-03-11T01:23:57;26.10;;;14.33;;
17283;SDS011;8760;52.248;20.952;2023-03-11T01:26:24;22.77;;;13.97;;
17283;SDS011;8760;52.248;20.952;2023-03-11T01:28:50;21.20;;;13.00;;
17283;SDS011;8760;52.248;20.952;2023-03-11T01:31:17;21.20;;;13.37;;
17283;SDS011;8760;52.248;20.952;2023-03-11T01:33:44;22.70;;;13.50;;
17283;SDS011;8760;52.248;20.952;2023-03-11T01:36:11;23.80;;;14.13;;
17283;SDS011;8760;52.248;20.952;2023-03-11T01:38:39;24.40;;;13.37;;
17283;SDS011;8760;52.248;20.952;2023-03-11T01:41:06;23.60;;;12.83;;
17283;SDS011;8760;52.248;20.952;2023-03-11T01:43:37;19.47;;;12.53;;
17283;SDS011;8760;52.248;20.952;2023-03-11T01:46:08;23.23;;;13.60;;
17283;SDS011;8760;52.248;20.952;2023-03-11T01:48:39;19.90;;;12.50;;
17283;SDS011;8760;52.248;20.952;2023-03-11T01:51:10;19.50;;;12.73;;
17283;SDS011;8760;52.248;20.952;2023-03-11T01:53:38;21.83;;;13.07;;
17283;SDS011;8760;52.248;20.952;2023-03-11T01:56:06;19.00;;;12.87;;
17283;SDS011;8760;52.248;20.952;2023-03-11T01:58:35;21.43;;;13.30;;
17283;SDS011;8760;52.248;20.952;2023-03-11T02:01:04;22.20;;;12.30;;
17283;SDS011;8760;52.248;20.952;2023-03-11T02:03:34;20.07;;;12.57;;
17283;SDS011;8760;52.248;20.952;2023-03-11T02:06:05;19.33;;;12.47;;
17283;SDS011;8760;52.248;20.952;2023-03-11T02:08:34;20.63;;;11.53;;
17283;SDS011;8760;52.248;20.952;2023-03-11T02:11:04;20.90;;;12.13;;
17283;SDS011;8760;52.248;20.952;2023-03-11T02:13:33;19.37;;;12.20;;
17283;SDS011;8760;52.248;20.952;2023-03-11T02:16:01;20.33;;;12.43;;
17283;SDS011;8760;52.248;20.952;2023-03-11T02:18:29;19.60;;;11.80;;
17283;SDS011;8760;52.248;20.952;2023-03-11T02:20:59;18.43;;;11.47;;
17283;SDS011;8760;52.248;20.952;2023-03-11T02:23:33;17.87;;;11.00;;
17283;SDS011;8760;52.248;20.952;2023-03-11T02:26:10;20.90;;;11.70;;
17283;SDS011;8760;52.248;20.952;2023-03-11T02:28:41;19.37;;;11.20;;
17283;SDS011;8760;52.248;20.952;2023-03-11T02:31:09;16.43;;;10.27;;
17283;SDS011;8760;52.248;20.952;2023-03-11T02:33:36;15.60;;;10.07;;
17283;SDS011;8760;52.248;20.952;2023-03-11T02:36:03;16.70;;;10.77;;
17283;SDS011;8760;52.248;20.952;2023-03-11T02:38:31;18.23;;;10.50;;
17283;SDS011;8760;52.248;20.952;2023-03-11T02:40:58;14.47;;;8.97;;
17283;SDS011;8760;52.248;20.952;2023-03-11T02:43:30;18.77;;;10.30;;
17283;SDS011;8760;52.248;20.952;2023-03-11T02:46:05;16.20;;;10.00;;
17283;SDS011;8760;52.248;20.952;2023-03-11T02:48:34;15.50;;;9.43;;
17283;SDS011;8760;52.248;20.952;2023-03-11T02:51:02;14.57;;;9.67;;
17283;SDS011;8760;52.248;20.952;2023-03-11T02:53:30;17.87;;;9.93;;
17283;SDS011;8760;52.248;20.952;2023-03-11T02:56:01;16.73;;;9.17;;
17283;SDS011;8760;52.248;20.952;2023-03-11T02:58:29;16.43;;;9.33;;
17283;SDS011;8760;52.248;20.952;2023-03-11T03:00:55;14.60;;;8.73;;
17283;SDS011;8760;52.248;20.952;2023-03-11T03:03:24;13.63;;;8.37;;
17283;SDS011;8760;52.248;20.952;2023-03-11T03:05:51;14.63;;;8.73;;
17283;SDS011;8760;52.248;20.952;2023-03-11T03:08:17;12.27;;;8.30;;
17283;SDS011;8760;52.248;20.952;2023-03-11T03:10:44;16.20;;;8.27;;
17283;SDS011;8760;52.248;20.952;2023-03-11T03:13:11;11.73;;;8.20;;
17283;SDS011;8760;52.248;20.952;2023-03-11T03:15:39;13.33;;;8.33;;
17283;SDS011;8760;52.248;20.952;2023-03-11T03:18:05;12.77;;;7.60;;
17283;SDS011;8760;52.248;20.952;2023-03-11T03:20:34;13.30;;;7.73;;
17283;SDS011;8760;52.248;20.952;2023-03-11T03:23:01;13.90;;;8.30;;
17283;SDS011;8760;52.248;20.952;2023-03-11T03:25:28;11.70;;;7.20;;
17283;SDS011;8760;52.248;20.952;2023-03-11T03:27:55;12.57;;;7.73;;
17283;SDS011;8760;52.248;20.952;2023-03-11T03:30:21;12.47;;;7.63;;
17283;SDS011;8760;52.248;20.952;2023-03-11T03:32:48;10.97;;;7.20;;
17283;SDS011;8760;52.248;20.952;2023-03-11T03:35:15;11.33;;;7.30;;
17283;SDS011;8760;52.248;20.952;2023-03-11T03:37:44;11.00;;;7.03;;
17283;SDS011;8760;52.248;20.952;2023-03-11T03:40:11;12.23;;;7.30;;
17283;SDS011;8760;52.248;20.952;2023-03-11T03:42:38;12.17;;;6.67;;
17283;SDS011;8760;52.248;20.952;2023-03-11T03:45:06;12.80;;;6.87;;
17283;SDS011;8760;52.248;20.952;2023-03-11T03:47:34;12.73;;;6.53;;
17283;SDS011;8760;52.248;20.952;2023-03-11T03:50:01;9.90;;;5.93;;
17283;SDS011;8760;52.248;20.952;2023-03-11T03:52:29;10.80;;;7.10;;
17283;SDS011;8760;52.248;20.952;2023-03-11T03:54:57;11.53;;;6.73;;
17283;SDS011;8760;52.248;20.952;2023-03-11T03:57:24;10.80;;;6.20;;
17283;SDS011;8760;52.248;20.952;2023-03-11T03:59:51;12.93;;;6.77;;
17283;SDS011;8760;52.248;20.952;2023-03-11T04:02:17;8.63;;;6.03;;
17283;SDS011;8760;52.248;20.952;2023-03-11T04:04:44;10.37;;;6.40;;
17283;SDS011;8760;52.248;20.952;2023-03-11T04:07:11;10.50;;;6.37;;
17283;SDS011;8760;52.248;20.952;2023-03-11T04:09:39;11.27;;;6.37;;
17283;SDS011;8760;52.248;20.952;2023-03-11T04:12:07;19.80;;;8.63;;
17283;SDS011;8760;52.248;20.952;2023-03-11T04:14:38;10.53;;;6.10;;
17283;SDS011;8760;52.248;20.952;2023-03-11T04:17:05;8.23;;;5.13;;
17283;SDS011;8760;52.248;20.952;2023-03-11T04:19:32;8.23;;;5.50;;
17283;SDS011;8760;52.248;20.952;2023-03-11T04:21:59;9.10;;;6.03;;
17283;SDS011;8760;52.248;20.952;2023-03-11T04:24:25;9.80;;;5.80;;
17283;SDS011;8760;52.248;20.952;2023-03-11T04:26:52;9.23;;;5.47;;
17283;SDS011;8760;52.248;20.952;2023-03-11T04:29:20;8.97;;;6.13;;
17283;SDS011;8760;52.248;20.952;2023-03-11T04:31:48;10.27;;;6.30;;
17283;SDS011;8760;52.248;20.952;2023-03-11T04:34:14;10.47;;;6.07;;
17283;SDS011;8760;52.248;20.952;2023-03-11T04:36:41;9.87;;;6.30;;
17283;SDS011;8760;52.248;20.952;2023-03-11T04:39:08;11.27;;;5.50;;
17283;SDS011;8760;52.248;20.952;2023-03-11T04:41:35;8.20;;;5.80;;
17283;SDS011;8760;52.248;20.952;2023-03-11T04:44:03;9.00;;;5.40;;
17283;SDS011;8760;52.248;20.952;2023-03-11T04:46:32;9.43;;;5.83;;
17283;SDS011;8760;52.248;20.952;2023-03-11T04:48:59;9.60;;;5.90;;
17283;SDS011;8760;52.248;20.952;2023-03-11T04:51:25;10.40;;;6.10;;
17283;SDS011;8760;52.248;20.952;2023-03-11T04:53:52;9.47;;;6.33;;
17283;SDS011;8760;52.248;20.952;2023-03-11T04:56:19;11.57;;;6.37;;
17283;SDS011;8760;52.248;20.952;2023-03-11T04:58:46;7.87;;;5.37;;
17283;SDS011;8760;52.248;20.952;2023-03-11T05:01:13;10.20;;;6.00;;
17283;SDS011;8760;52.248;20.952;2023-03-11T05:03:41;9.00;;;5.60;;
17283;SDS011;8760;52.248;20.952;2023-03-11T05:06:09;9.93;;;5.50;;
17283;SDS011;8760;52.248;20.952;2023-03-11T05:08:36;8.43;;;5.40;;
17283;SDS011;8760;52.248;20.952;2023-03-11T05:11:03;9.20;;;5.37;;
17283;SDS011;8760;52.248;20.952;2023-03-11T05:13:30;9.93;;;5.47;;
17283;SDS011;8760;52.248;20.952;2023-03-11T05:15:56;10.83;;;6.50;;
17283;SDS011;8760;52.248;20.952;2023-03-11T05:18:23;9.60;;;6.37;;
17283;SDS011;8760;52.248;20.952;2023-03-11T05:20:52;10.77;;;6.10;;
17283;SDS011;8760;52.248;20.952;2023-03-11T05:23:19;10.13;;;6.07;;
17283;SDS011;8760;52.248;20.952;2023-03-11T05:25:45;8.17;;;6.03;;
17283;SDS011;8760;52.248;20.952;2023-03-11T05:28:12;8.57;;;5.47;;
17283;SDS011;8760;52.248;20.952;2023-03-11T05:30:39;10.27;;;5.87;;
17283;SDS011;8760;52.248;20.952;2023-03-11T05:33:06;9.93;;;5.67;;
17283;SDS011;8760;52.248;20.952;2023-03-11T05:35:33;8.17;;;5.73;;
17283;SDS011;8760;52.248;20.952;2023-03-11T05:38:01;9.03;;;5.50;;
17283;SDS011;8760;52.248;20.952;2023-03-11T05:40:28;10.77;;;6.20;;
17283;SDS011;8760;52.248;20.952;2023-03-11T05:42:57;9.23;;;5.33;;
17283;SDS011;8760;52.248;20.952;2023-03-11T05:45:24;9.93;;;5.80;;
17283;SDS011;8760;52.248;20.952;2023-03-11T05:47:51;10.37;;;5.53;;
17283;SDS011;8760;52.248;20.952;2023-03-11T05:50:18;8.00;;;5.20;;
17283;SDS011;8760;52.248;20.952;2023-03-11T05:52:45;8.03;;;5.27;;
17283;SDS011;8760;52.248;20.952;2023-03-11T05:55:14;6.50;;;5.00;;
17283;SDS011;8760;52.248;20.952;2023-03-11T05:57:41;9.13;;;5.70;;
17283;SDS011;8760;52.248;20.952;2023-03-11T06:00:09;8.50;;;5.10;;
17283;SDS011;8760;52.248;20.952;2023-03-11T06:02:37;7.60;;;5.23;;
17283;SDS011;8760;52.248;20.952;2023-03-11T06:05:05;9.70;;;5.73;;
17283;SDS011;8760;52.248;20.952;2023-03-11T06:07:35;8.17;;;4.97;;
17283;SDS011;8760;52.248;20.952;2023-03-11T06:10:02;7.63;;;4.93;;
17283;SDS011;8760;52.248;20.952;2023-03-11T06:12:33;9.07;;;5.00;;
17283;SDS011;8760;52.248;20.952;2023-03-11T06:15:01;8.90;;;5.07;;
17283;SDS011;8760;52.248;20.952;2023-03-11T06:17:28;7.70;;;4.90;;
17283;SDS011;8760;52.248;20.952;2023-03-11T06:19:55;8.33;;;5.30;;
17283;SDS011;8760;52.248;20.952;2023-03-11T06:22:22;6.27;;;4.60;;
17283;SDS011;8760;52.248;20.952;2023-03-11T06:24:49;9.63;;;4.77;;
17283;SDS011;8760;52.248;20.952;2023-03-11T06:27:16;8.60;;;5.33;;
17283;SDS011;8760;52.248;20.952;2023-03-11T06:29:44;7.43;;;5.10;;
17283;SDS011;8760;52.248;20.952;2023-03-11T06:32:11;9.37;;;5.27;;
17283;SDS011;8760;52.248;20.952;2023-03-11T06:34:38;7.13;;;4.93;;
17283;SDS011;8760;52.248;20.952;2023-03-11T06:37:05;6.50;;;4.63;;
17283;SDS011;8760;52.248;20.952;2023-03-11T06:39:31;6.07;;;4.67;;
17283;SDS011;8760;52.248;20.952;2023-03-11T06:41:58;7.73;;;4.27;;
17283;SDS011;8760;52.248;20.952;2023-03-11T06:44:25;10.20;;;4.77;;
17283;SDS011;8760;52.248;20.952;2023-03-11T06:46:54;6.43;;;4.60;;
17283;SDS011;8760;52.248;20.952;2023-03-11T06:49:20;7.83;;;5.03;;
17283;SDS011;8760;52.248;20.952;2023-03-11T06:51:47;7.77;;;4.77;;
17283;SDS011;8760;52.248;20.952;2023-03-11T06:54:14;7.63;;;5.47;;
17283;SDS011;8760;52.248;20.952;2023-03-11T06:56:41;8.23;;;5.10;;
17283;SDS011;8760;52.248;20.952;2023-03-11T06:59:08;10.13;;;5.07;;
17283;SDS011;8760;52.248;20.952;2023-03-11T07:01:35;9.03;;;5.50;;
17283;SDS011;8760;52.248;20.952;2023-03-11T07:04:03;7.77;;;5.43;;
17283;SDS011;8760;52.248;20.952;2023-03-11T07:06:30;7.83;;;5.23;;
17283;SDS011;8760;52.248;20.952;2023-03-11T07:08:57;7.80;;;5.37;;
17283;SDS011;8760;52.248;20.952;2023-03-11T07:11:24;6.70;;;5.10;;
17283;SDS011;8760;52.248;20.952;2023-03-11T07:13:52;9.83;;;6.07;;
17283;SDS011;8760;52.248;20.952;2023-03-11T07:16:20;5.97;;;5.23;;
17283;SDS011;8760;52.248;20.952;2023-03-11T07:18:49;8.43;;;5.73;;
17283;SDS011;8760;52.248;20.952;2023-03-11T07:21:19;7.43;;;6.00;;
17283;SDS011;8760;52.248;20.952;2023-03-11T07:23:47;8.83;;;6.00;;
17283;SDS011;8760;52.248;20.952;2023-03-11T07:26:17;9.30;;;5.90;;
17283;SDS011;8760;52.248;20.952;2023-03-11T07:28:44;7.33;;;6.50;;
17283;SDS011;8760;52.248;20.952;2023-03-11T07:31:13;7.17;;;6.00;;
17283;SDS011;8760;52.248;20.952;2023-03-11T07:33:42;9.37;;;6.93;;
17283;SDS011;8760;52.248;20.952;2023-03-11T07:36:10;9.53;;;7.43;;
17283;SDS011;8760;52.248;20.952;2023-03-11T07:38:40;10.23;;;7.37;;
17283;SDS011;8760;52.248;20.952;2023-03-11T07:41:08;8.57;;;7.33;;
17283;SDS011;8760;52.248;20.952;2023-03-11T07:43:36;7.73;;;6.93;;
17283;SDS011;8760;52.248;20.952;2023-03-11T07:46:04;8.63;;;7.20;;
17283;SDS011;8760;52.248;20.952;2023-03-11T07:48:32;10.60;;;8.20;;
17283;SDS011;8760;52.248;20.952;2023-03-11T07:51:00;11.07;;;7.70;;
17283;SDS011;8760;52.248;20.952;2023-03-11T07:53:28;10.40;;;8.27;;
17283;SDS011;8760;52.248;20.952;2023-03-11T07:55:56;11.73;;;8.67;;
17283;SDS011;8760;52.248;20.952;2023-03-11T07:58:24;10.90;;;8.60;;
17283;SDS011;8760;52.248;20.952;2023-03-11T08:00:52;10.70;;;9.47;;
17283;SDS011;8760;52.248;20.952;2023-03-11T08:03:21;14.70;;;9.70;;
17283;SDS011;8760;52.248;20.952;2023-03-11T08:05:48;10.57;;;9.47;;
17283;SDS011;8760;52.248;20.952;2023-03-11T08:08:15;11.13;;;9.67;;
17283;SDS011;8760;52.248;20.952;2023-03-11T08:10:42;10.27;;;9.13;;
17283;SDS011;8760;52.248;20.952;2023-03-11T08:13:10;10.67;;;9.57;;
17283;SDS011;8760;52.248;20.952;2023-03-11T08:15:37;11.03;;;9.13;;
17283;SDS011;8760;52.248;20.952;2023-03-11T08:18:04;9.50;;;8.50;;
17283;SDS011;8760;52.248;20.952;2023-03-11T08:20:31;9.87;;;7.67;;
17283;SDS011;8760;52.248;20.952;2023-03-11T08:22:58;9.80;;;8.80;;
17283;SDS011;8760;52.248;20.952;2023-03-11T08:25:27;12.27;;;9.13;;
17283;SDS011;8760;52.248;20.952;2023-03-11T08:27:54;10.27;;;8.80;;
17283;SDS011;8760;52.248;20.952;2023-03-11T08:30:23;11.53;;;9.40;;
17283;SDS011;8760;52.248;20.952;2023-03-11T08:32:50;13.30;;;10.13;;
17283;SDS011;8760;52.248;20.952;2023-03-11T08:35:20;13.33;;;10.07;;
17283;SDS011;8760;52.248;20.952;2023-03-11T08:37:47;13.00;;;9.53;;
17283;SDS011;8760;52.248;20.952;2023-03-11T08:40:14;11.87;;;10.07;;
17283;SDS011;8760;52.248;20.952;2023-03-11T08:42:41;12.17;;;10.77;;
17283;SDS011;8760;52.248;20.952;2023-03-11T08:45:08;11.50;;;10.30;;
17283;SDS011;8760;52.248;20.952;2023-03-11T08:47:37;14.27;;;11.20;;
17283;SDS011;8760;52.248;20.952;2023-03-11T08:50:05;13.80;;;11.97;;
17283;SDS011;8760;52.248;20.952;2023-03-11T08:52:34;13.97;;;11.80;;
17283;SDS011;8760;52.248;20.952;2023-03-11T08:55:01;13.27;;;11.83;;
17283;SDS011;8760;52.248;20.952;2023-03-11T08:57:31;14.20;;;11.57;;
17283;SDS011;8760;52.248;20.952;2023-03-11T08:59:57;13.90;;;12.40;;
17283;SDS011;8760;52.248;20.952;2023-03-11T09:02:25;13.17;;;11.33;;
17283;SDS011;8760;52.248;20.952;2023-03-11T09:04:54;13.87;;;12.40;;
17283;SDS011;8760;52.248;20.952;2023-03-11T09:07:21;15.13;;;12.37;;
17283;SDS011;8760;52.248;20.952;2023-03-11T09:09:47;14.30;;;12.03;;
17283;SDS011;8760;52.248;20.952;2023-03-11T09:12:14;14.20;;;12.13;;
17283;SDS011;8760;52.248;20.952;2023-03-11T09:14:41;13.03;;;11.63;;
17283;SDS011;8760;52.248;20.952;2023-03-11T09:17:09;15.23;;;11.40;;
17283;SDS011;8760;52.248;20.952;2023-03-11T09:19:38;14.07;;;12.57;;
17283;SDS011;8760;52.248;20.952;2023-03-11T09:22:06;14.17;;;11.50;;
17283;SDS011;8760;52.248;20.952;2023-03-11T09:24:33;16.07;;;12.73;;
17283;SDS011;8760;52.248;20.952;2023-03-11T09:27:01;16.60;;;14.00;;
17283;SDS011;8760;52.248;20.952;2023-03-11T09:29:28;17.10;;;13.67;;
17283;SDS011;8760;52.248;20.952;2023-03-11T09:31:55;21.57;;;14.17;;
17283;SDS011;8760;52.248;20.952;2023-03-11T09:34:23;20.93;;;14.57;;
17283;SDS011;8760;52.248;20.952;2023-03-11T09:36:50;21.10;;;15.23;;
17283;SDS011;8760;52.248;20.952;2023-03-11T09:39:18;19.57;;;14.03;;
17283;SDS011;8760;52.248;20.952;2023-03-11T09:41:46;21.97;;;14.77;;
17283;SDS011;8760;52.248;20.952;2023-03-11T09:44:19;20.60;;;14.73;;
17283;SDS011;8760;52.248;20.952;2023-03-11T09:47:02;23.17;;;16.23;;
17283;SDS011;8760;52.248;20.952;2023-03-11T09:49:49;22.90;;;15.30;;
17283;SDS011;8760;52.248;20.952;2023-03-11T09:52:29;24.83;;;16.57;;
17283;SDS011;8760;52.248;20.952;2023-03-11T09:55:01;24.50;;;16.20;;
17283;SDS011;8760;52.248;20.952;2023-03-11T09:57:31;26.40;;;16.43;;
17283;SDS011;8760;52.248;20.952;2023-03-11T10:00:04;22.13;;;14.00;;
17283;SDS011;8760;52.248;20.952;2023-03-11T10:02:32;18.27;;;12.03;;
17283;SDS011;8760;52.248;20.952;2023-03-11T10:05:04;17.67;;;11.00;;
17283;SDS011;8760;52.248;20.952;2023-03-11T10:07:39;15.43;;;10.57;;
17283;SDS011;8760;52.248;20.952;2023-03-11T10:12:43;15.20;;;9.90;;
17283;SDS011;8760;52.248;20.952;2023-03-11T10:15:19;12.33;;;9.23;;
17283;SDS011;8760;52.248;20.952;2023-03-11T10:18:02;15.30;;;9.40;;
17283;SDS011;8760;52.248;20.952;2023-03-11T10:20:36;12.50;;;8.80;;
17283;SDS011;8760;52.248;20.952;2023-03-11T10:23:14;13.53;;;8.93;;
17283;SDS011;8760;52.248;20.952;2023-03-11T10:25:53;12.07;;;8.67;;
17283;SDS011;8760;52.248;20.952;2023-03-11T10:28:30;10.30;;;7.10;;
17283;SDS011;8760;52.248;20.952;2023-03-11T10:31:01;9.97;;;7.43;;
17283;SDS011;8760;52.248;20.952;2023-03-11T10:33:34;8.57;;;6.20;;
17283;SDS011;8760;52.248;20.952;2023-03-11T10:36:08;8.53;;;6.77;;
17283;SDS011;8760;52.248;20.952;2023-03-11T10:38:39;6.47;;;5.83;;
17283;SDS011;8760;52.248;20.952;2023-03-11T10:41:13;7.30;;;6.10;;
17283;SDS011;8760;52.248;20.952;2023-03-11T10:43:45;7.90;;;6.10;;
17283;SDS011;8760;52.248;20.952;2023-03-11T10:46:18;6.67;;;5.90;;
17283;SDS011;8760;52.248;20.952;2023-03-11T10:48:48;7.47;;;6.17;;
17283;SDS011;8760;52.248;20.952;2023-03-11T10:51:16;8.10;;;5.70;;
17283;SDS011;8760;52.248;20.952;2023-03-11T10:53:47;8.00;;;6.63;;
17283;SDS011;8760;52.248;20.952;2023-03-11T10:56:30;8.77;;;7.20;;
17283;SDS011;8760;52.248;20.952;2023-03-11T10:58:58;8.30;;;6.70;;
17283;SDS011;8760;52.248;20.952;2023-03-11T11:01:27;7.37;;;6.40;;
17283;SDS011;8760;52.248;20.952;2023-03-11T11:03:55;7.90;;;6.50;;
17283;SDS011;8760;52.248;20.952;2023-03-11T11:06:25;6.90;;;6.20;;
17283;SDS011;8760;52.248;20.952;2023-03-11T11:11:59;6.37;;;5.17;;
17283;SDS011;8760;52.248;20.952;2023-03-11T11:14:40;6.13;;;5.00;;
17283;SDS011;8760;52.248;20.952;2023-03-11T11:17:18;5.90;;;5.07;;
17283;SDS011;8760;52.248;20.952;2023-03-11T11:19:49;5.23;;;4.57;;
17283;SDS011;8760;52.248;20.952;2023-03-11T11:22:18;5.43;;;4.50;;
17283;SDS011;8760;52.248;20.952;2023-03-11T11:24:47;4.20;;;3.80;;
17283;SDS011;8760;52.248;20.952;2023-03-11T11:27:18;3.80;;;3.40;;
17283;SDS011;8760;52.248;20.952;2023-03-11T11:29:47;3.30;;;3.00;;
17283;SDS011;8760;52.248;20.952;2023-03-11T11:32:31;3.33;;;3.03;;
17283;SDS011;8760;52.248;20.952;2023-03-11T11:34:59;3.90;;;3.30;;
17283;SDS011;8760;52.248;20.952;2023-03-11T11:37:27;2.70;;;2.50;;
17283;SDS011;8760;52.248;20.952;2023-03-11T11:39:57;3.67;;;3.10;;
17283;SDS011;8760;52.248;20.952;2023-03-11T11:42:35;4.00;;;3.03;;
17283;SDS011;8760;52.248;20.952;2023-03-11T11:45:05;4.00;;;3.27;;
17283;SDS011;8760;52.248;20.952;2023-03-11T11:47:40;4.10;;;3.53;;
17283;SDS011;8760;52.248;20.952;2023-03-11T11:50:13;3.40;;;3.10;;
17283;SDS011;8760;52.248;20.952;2023-03-11T11:52:46;3.53;;;3.23;;
17283;SDS011;8760;52.248;20.952;2023-03-11T11:55:18;3.63;;;3.17;;
17283;SDS011;8760;52.248;20.952;2023-03-11T11:57:50;3.80;;;3.50;;
17283;SDS011;8760;52.248;20.952;2023-03-11T12:00:18;4.63;;;3.63;;
17283;SDS011;8760;52.248;20.952;2023-03-11T12:02:53;4.83;;;4.07;;
17283;SDS011;8760;52.248;20.952;2023-03-11T12:05:31;5.60;;;4.10;;
17283;SDS011;8760;52.248;20.952;2023-03-11T12:08:08;5.67;;;4.00;;
17283;SDS011;8760;52.248;20.952;2023-03-11T12:10:43;5.83;;;4.30;;
17283;SDS011;8760;52.248;20.952;2023-03-11T12:13:23;5.10;;;4.60;;
17283;SDS011;8760;52.248;20.952;2023-03-11T12:16:04;4.53;;;4.10;;
17283;SDS011;8760;52.248;20.952;2023-03-11T12:18:39;6.27;;;5.20;;
17283;SDS011;8760;52.248;20.952;2023-03-11T12:21:16;5.80;;;4.80;;
17283;SDS011;8760;52.248;20.952;2023-03-11T12:23:57;7.53;;;5.40;;
17283;SDS011;8760;52.248;20.952;2023-03-11T12:26:38;5.47;;;4.83;;
17283;SDS011;8760;52.248;20.952;2023-03-11T12:29:11;6.90;;;6.13;;
17283;SDS011;8760;52.248;20.952;2023-03-11T12:31:46;7.70;;;5.20;;
17283;SDS011;8760;52.248;20.952;2023-03-11T12:34:13;6.83;;;6.00;;
17283;SDS011;8760;52.248;20.952;2023-03-11T12:36:44;7.50;;;5.67;;
17283;SDS011;8760;52.248;20.952;2023-03-11T12:39:19;7.13;;;5.60;;
17283;SDS011;8760;52.248;20.952;2023-03-11T12:41:47;7.60;;;5.53;;
17283;SDS011;8760;52.248;20.952;2023-03-11T12:44:23;5.27;;;4.60;;
17283;SDS011;8760;52.248;20.952;2023-03-11T12:49:43;8.33;;;5.23;;
17283;SDS011;8760;52.248;20.952;2023-03-11T12:52:21;5.63;;;4.80;;
17283;SDS011;8760;52.248;20.952;2023-03-11T12:57:51;5.70;;;5.10;;
17283;SDS011;8760;52.248;20.952;2023-03-11T13:00:32;5.60;;;4.87;;
17283;SDS011;8760;52.248;20.952;2023-03-11T13:03:35;6.30;;;5.17;;
17283;SDS011;8760;52.248;20.952;2023-03-11T13:06:29;6.03;;;4.33;;
17283;SDS011;8760;52.248;20.952;2023-03-11T13:09:20;7.47;;;5.27;;
17283;SDS011;8760;52.248;20.952;2023-03-11T13:11:48;7.50;;;5.37;;
17283;SDS011;8760;52.248;20.952;2023-03-11T13:14:25;7.03;;;4.97;;
17283;SDS011;8760;52.248;20.952;2023-03-11T13:16:55;6.43;;;5.23;;
17283;SDS011;8760;52.248;20.952;2023-03-11T13:19:46;8.03;;;5.23;;
17283;SDS011;8760;52.248;20.952;2023-03-11T13:25:27;6.57;;;5.40;;
17283;SDS011;8760;52.248;20.952;2023-03-11T13:27:58;7.97;;;6.17;;
17283;SDS011;8760;52.248;20.952;2023-03-11T13:30:37;6.97;;;5.00;;
17283;SDS011;8760;52.248;20.952;2023-03-11T13:33:24;8.33;;;5.07;;
17283;SDS011;8760;52.248;20.952;2023-03-11T13:36:05;6.10;;;5.50;;
17283;SDS011;8760;52.248;20.952;2023-03-11T13:38:42;7.93;;;5.50;;
17283;SDS011;8760;52.248;20.952;2023-03-11T13:41:23;7.90;;;6.07;;
17283;SDS011;8760;52.248;20.952;2023-03-11T13:43:55;8.00;;;6.17;;
17283;SDS011;8760;52.248;20.952;2023-03-11T13:46:29;9.53;;;6.03;;
17283;SDS011;8760;52.248;20.952;2023-03-11T13:49:05;6.80;;;5.70;;
17283;SDS011;8760;52.248;20.952;2023-03-11T13:51:41;6.27;;;5.30;;
17283;SDS011;8760;52.248;20.952;2023-03-11T13:54:17;8.20;;;5.50;;
17283;SDS011;8760;52.248;20.952;2023-03-11T13:56:58;9.10;;;5.93;;
17283;SDS011;8760;52.248;20.952;2023-03-11T13:59:27;9.00;;;5.03;;
17283;SDS011;8760;52.248;20.952;2023-03-11T14:01:56;7.53;;;5.33;;
17283;SDS011;8760;52.248;20.952;2023-03-11T14:04:27;6.40;;;5.23;;
17283;SDS011;8760;52.248;20.952;2023-03-11T14:06:55;7.90;;;6.53;;
17283;SDS011;8760;52.248;20.952;2023-03-11T14:09:23;7.50;;;5.80;;
17283;SDS011;8760;52.248;20.952;2023-03-11T14:11:52;8.80;;;5.83;;
17283;SDS011;8760;52.248;20.952;2023-03-11T14:14:26;7.20;;;5.30;;
17283;SDS011;8760;52.248;20.952;2023-03-11T14:16:59;6.33;;;5.47;;
17283;SDS011;8760;52.248;20.952;2023-03-11T14:19:29;7.33;;;5.43;;
17283;SDS011;8760;52.248;20.952;2023-03-11T14:21:56;8.83;;;5.73;;
17283;SDS011;8760;52.248;20.952;2023-03-11T14:24:27;7.57;;;4.87;;
17283;SDS011;8760;52.248;20.952;2023-03-11T14:26:56;7.40;;;5.27;;
17283;SDS011;8760;52.248;20.952;2023-03-11T14:29:26;6.00;;;4.40;;
17283;SDS011;8760;52.248;20.952;2023-03-11T14:31:58;8.40;;;5.20;;
17283;SDS011;8760;52.248;20.952;2023-03-11T14:34:25;7.53;;;5.43;;
17283;SDS011;8760;52.248;20.952;2023-03-11T14:36:57;6.47;;;4.37;;
17283;SDS011;8760;52.248;20.952;2023-03-11T14:39:26;5.83;;;4.97;;
17283;SDS011;8760;52.248;20.952;2023-03-11T14:41:56;9.37;;;5.27;;
17283;SDS011;8760;52.248;20.952;2023-03-11T14:44:27;7.73;;;4.80;;
17283;SDS011;8760;52.248;20.952;2023-03-11T14:46:57;5.80;;;4.23;;
17283;SDS011;8760;52.248;20.952;2023-03-11T14:49:31;6.80;;;4.23;;
17283;SDS011;8760;52.248;20.952;2023-03-11T14:52:00;7.97;;;4.80;;
17283;SDS011;8760;52.248;20.952;2023-03-11T14:54:31;6.50;;;4.37;;
17283;SDS011;8760;52.248;20.952;2023-03-11T14:57:02;6.10;;;4.10;;
17283;SDS011;8760;52.248;20.952;2023-03-11T14:59:32;6.40;;;4.20;;
17283;SDS011;8760;52.248;20.952;2023-03-11T15:02:05;6.53;;;4.50;;
17283;SDS011;8760;52.248;20.952;2023-03-11T15:04:52;5.97;;;3.50;;
17283;SDS011;8760;52.248;20.952;2023-03-11T15:07:35;4.97;;;3.50;;